createdAt,value
2018-08-18T00:00:53.428Z,52.40
2018-08-18T00:03:24.059Z,52.70
2018-08-18T00:05:54.616Z,52.50
2018-08-18T00:08:24.944Z,52.50
2018-08-18T00:10:55.263Z,52.90
2018-08-18T00:13:25.851Z,52.90
2018-08-18T00:15:56.421Z,53.00
2018-08-18T00:18:27.009Z,53.10
2018-08-18T00:20:57.324Z,53.00
2018-08-18T00:23:27.898Z,53.30
2018-08-18T00:25:58.212Z,53.40
2018-08-18T00:28:28.576Z,53.40
2018-08-18T00:30:59.152Z,53.40
2018-08-18T00:33:29.495Z,53.20
2018-08-18T00:36:00.055Z,53.30
2018-08-18T00:38:30.376Z,53.50
2018-08-18T00:41:00.684Z,53.50
2018-08-18T00:43:31.008Z,53.50
2018-08-18T00:46:01.320Z,53.80
2018-08-18T00:48:31.907Z,53.80
2018-08-18T00:51:02.209Z,53.80
2018-08-18T00:53:32.548Z,54.00
2018-08-18T00:56:04.520Z,53.90
2018-08-18T00:58:34.841Z,54.00
2018-08-18T01:01:05.824Z,54.00
2018-08-18T01:04:09.316Z,54.30
2018-08-18T01:06:40.935Z,54.30
2018-08-18T01:09:13.088Z,54.40
2018-08-18T01:14:54.641Z,54.50
2018-08-18T01:17:25.645Z,54.10
2018-08-18T01:19:57.326Z,54.10
2018-08-18T01:22:27.662Z,54.30
2018-08-18T01:24:57.997Z,54.40
2018-08-18T01:27:29.485Z,54.60
2018-08-18T01:30:03.707Z,54.60
2018-08-18T01:32:34.473Z,55.10
2018-08-18T01:35:05.013Z,54.60
2018-08-18T01:37:35.565Z,55.00
2018-08-18T01:40:05.853Z,55.00
2018-08-18T01:42:36.418Z,55.10
2018-08-18T01:45:06.996Z,55.10
2018-08-18T01:47:37.546Z,55.10
2018-08-18T01:50:13.225Z,55.10
2018-08-18T01:52:43.544Z,55.30
2018-08-18T01:55:15.693Z,55.50
2018-08-18T01:57:47.540Z,55.50
2018-08-18T02:00:27.544Z,55.60
2018-08-18T02:02:57.873Z,55.80
2018-08-18T02:05:28.192Z,56.00
2018-08-18T02:07:58.776Z,56.00
2018-08-18T02:10:29.085Z,56.00
2018-08-18T02:13:03.151Z,56.00
2018-08-18T02:15:33.771Z,56.00
2018-08-18T02:18:04.361Z,55.90
2018-08-18T02:20:34.668Z,56.00
2018-08-18T02:23:05.020Z,56.00
2018-08-18T02:25:35.642Z,55.90
2018-08-18T02:28:07.233Z,56.00
2018-08-18T02:30:37.800Z,56.10
2018-08-18T02:33:08.743Z,56.30
2018-08-18T02:35:39.058Z,56.50
2018-08-18T02:38:09.384Z,56.60
2018-08-18T02:40:39.970Z,56.80
2018-08-18T02:43:22.669Z,56.80
2018-08-18T02:45:52.981Z,56.70
2018-08-18T02:48:23.308Z,56.70
2018-08-18T02:50:53.618Z,56.90
2018-08-18T02:53:27.727Z,57.10
2018-08-18T02:55:58.187Z,57.20
2018-08-18T02:58:28.509Z,57.40
2018-08-18T03:00:58.784Z,57.20
2018-08-18T03:03:29.113Z,57.30
2018-08-18T03:06:17.637Z,57.40
2018-08-18T03:08:48.200Z,57.40
2018-08-18T03:11:18.481Z,57.40
2018-08-18T03:13:48.792Z,57.40
2018-08-18T03:16:19.069Z,57.40
2018-08-18T03:18:52.488Z,57.60
2018-08-18T03:21:31.876Z,57.40
2018-08-18T03:24:12.157Z,57.60
2018-08-18T03:26:44.315Z,57.20
2018-08-18T03:29:15.374Z,57.00
2018-08-18T03:31:46.046Z,57.80
2018-08-18T03:34:16.833Z,57.30
2018-08-18T03:36:50.560Z,57.40
2018-08-18T03:39:27.271Z,57.60
2018-08-18T03:41:58.892Z,57.70
2018-08-18T03:44:29.173Z,57.60
2018-08-18T03:46:59.709Z,57.70
2018-08-18T03:49:30.023Z,57.60
2018-08-18T03:52:00.557Z,57.60
2018-08-18T03:54:31.110Z,57.80
2018-08-18T03:57:01.642Z,57.90
2018-08-18T03:59:32.251Z,58.10
2018-08-18T04:02:02.855Z,58.20
2018-08-18T04:04:35.764Z,58.10
2018-08-18T04:07:07.291Z,58.20
2018-08-18T04:09:38.645Z,58.20
2018-08-18T04:12:10.913Z,58.20
2018-08-18T04:14:42.843Z,58.20
2018-08-18T04:17:30.158Z,58.30
2018-08-18T04:20:00.724Z,58.10
2018-08-18T04:22:31.289Z,58.00
2018-08-18T04:25:31.099Z,58.10
2018-08-18T04:28:01.412Z,58.10
2018-08-18T04:30:31.752Z,58.10
2018-08-18T04:33:03.264Z,58.20
2018-08-18T04:35:34.072Z,58.20
2018-08-18T04:38:04.901Z,58.40
2018-08-18T04:40:36.607Z,58.50
2018-08-18T04:43:06.925Z,58.60
2018-08-18T04:45:37.508Z,58.80
2018-08-18T04:48:07.821Z,58.80
2018-08-18T04:50:38.179Z,58.80
2018-08-18T04:53:08.674Z,58.80
2018-08-18T04:55:39.009Z,58.80
2018-08-18T04:58:09.601Z,59.00
2018-08-18T05:00:39.953Z,59.10
2018-08-18T05:03:10.580Z,59.10
2018-08-18T05:05:41.167Z,59.00
2018-08-18T05:08:11.480Z,59.10
2018-08-18T05:10:41.829Z,59.30
2018-08-18T05:13:12.137Z,59.10
2018-08-18T05:15:42.481Z,59.20
2018-08-18T05:18:13.056Z,59.20
2018-08-18T05:20:43.394Z,59.30
2018-08-18T05:23:25.147Z,59.60
2018-08-18T05:25:55.744Z,59.80
2018-08-18T05:28:26.069Z,59.60
2018-08-18T05:30:56.409Z,59.70
2018-08-18T05:33:26.724Z,59.70
2018-08-18T05:35:57.312Z,59.70
2018-08-18T05:38:27.743Z,59.80
2018-08-18T05:40:58.072Z,60.40
2018-08-18T05:43:28.407Z,59.80
2018-08-18T05:45:58.746Z,59.80
2018-08-18T05:48:29.081Z,59.90
2018-08-18T05:50:59.433Z,59.80
2018-08-18T05:53:30.848Z,59.80
2018-08-18T05:56:01.686Z,60.00
2018-08-18T05:58:51.252Z,60.10
2018-08-18T06:01:36.682Z,60.30
2018-08-18T06:04:12.824Z,60.10
2018-08-18T06:06:44.020Z,60.20
2018-08-18T06:09:15.699Z,60.10
2018-08-18T06:11:46.172Z,60.00
2018-08-18T06:14:17.152Z,59.90
2018-08-18T06:16:47.608Z,60.30
2018-08-18T06:19:17.993Z,60.10
2018-08-18T06:21:48.338Z,59.90
2018-08-18T06:24:18.656Z,59.90
2018-08-18T06:26:48.988Z,60.10
2018-08-18T06:29:19.552Z,60.30
2018-08-18T06:32:02.179Z,60.20
2018-08-18T06:34:34.051Z,59.70
2018-08-18T06:37:04.496Z,60.20
2018-08-18T06:39:53.276Z,60.20
2018-08-18T06:42:35.664Z,60.30
2018-08-18T06:45:14.454Z,59.60
2018-08-18T06:47:45.097Z,59.30
2018-08-18T06:50:16.500Z,59.50
2018-08-18T06:52:47.344Z,60.30
2018-08-18T06:55:19.667Z,59.70
2018-08-18T06:57:52.654Z,59.70
2018-08-18T07:00:24.312Z,59.10
2018-08-18T07:02:54.741Z,58.70
2018-08-18T07:05:25.073Z,58.40
2018-08-18T07:07:55.447Z,58.60
2018-08-18T07:10:34.112Z,58.60
2018-08-18T07:13:05.670Z,58.60
2018-08-18T07:15:37.218Z,58.50
2018-08-18T07:18:11.900Z,58.10
2018-08-18T07:20:42.600Z,58.10
2018-08-18T07:23:12.930Z,57.40
2018-08-18T07:25:49.637Z,57.70
2018-08-18T07:28:22.064Z,57.60
2018-08-18T07:30:52.647Z,57.00
2018-08-18T07:33:23.074Z,57.30
2018-08-18T07:35:53.683Z,57.40
2018-08-18T07:38:24.028Z,57.40
2018-08-18T07:40:55.263Z,57.40
2018-08-18T07:43:28.601Z,56.90
2018-08-18T07:46:00.372Z,56.90
2018-08-18T07:48:30.731Z,57.00
2018-08-18T07:51:01.063Z,56.50
2018-08-18T07:53:31.447Z,56.70
2018-08-18T07:56:02.180Z,55.70
2018-08-18T07:58:32.519Z,55.30
2018-08-18T08:01:02.799Z,55.60
2018-08-18T08:03:33.170Z,54.90
2018-08-18T08:06:03.474Z,54.50
2018-08-18T08:08:39.061Z,54.30
2018-08-18T08:11:13.129Z,54.10
2018-08-18T08:13:43.708Z,54.40
2018-08-18T08:16:13.984Z,53.90
2018-08-18T08:18:44.301Z,54.20
2018-08-18T08:21:14.651Z,54.30
2018-08-18T08:23:45.164Z,53.50
2018-08-18T08:26:15.479Z,53.30
2018-08-18T08:28:46.057Z,53.60
2018-08-18T08:31:16.345Z,54.10
2018-08-18T08:33:47.242Z,53.80
2018-08-18T08:36:17.853Z,53.30
2018-08-18T08:38:59.920Z,53.60
2018-08-18T08:41:32.032Z,53.20
2018-08-18T08:44:02.594Z,52.70
2018-08-18T08:46:32.888Z,52.50
2018-08-18T08:49:03.267Z,52.80
2018-08-18T08:51:33.960Z,52.50
2018-08-18T08:54:04.289Z,52.30
2018-08-18T08:56:39.416Z,52.50
2018-08-18T08:59:09.992Z,51.90
2018-08-18T09:01:40.284Z,52.10
2018-08-18T09:04:10.604Z,51.80
2018-08-18T09:06:46.001Z,51.80
2018-08-18T09:09:16.308Z,51.30
2018-08-18T09:11:46.596Z,51.00
2018-08-18T09:14:16.898Z,51.20
2018-08-18T09:16:47.197Z,50.80
2018-08-18T09:19:19.093Z,51.20
2018-08-18T09:21:51.324Z,51.40
2018-08-18T09:24:23.802Z,51.30
2018-08-18T09:26:55.326Z,51.00
2018-08-18T09:29:27.276Z,51.10
2018-08-18T10:06:38.256Z,48.40
2018-08-18T10:26:29.897Z,48.40
2018-08-18T10:32:20.996Z,47.60
2018-08-18T10:34:51.910Z,47.00
2018-08-18T10:37:23.021Z,46.90
2018-08-18T10:39:57.573Z,46.90
2018-08-18T10:42:28.448Z,46.70
2018-08-18T10:45:03.153Z,46.10
2018-08-18T10:47:34.204Z,46.80
2018-08-18T10:51:43.291Z,46.10
2018-08-18T10:54:14.219Z,46.30
2018-08-18T10:56:45.150Z,46.30
2018-08-18T10:59:18.185Z,46.10
2018-08-18T11:02:06.573Z,46.10
2018-08-18T11:04:38.004Z,46.10
2018-08-18T11:07:08.937Z,46.00
2018-08-18T11:09:39.831Z,45.80
2018-08-18T11:12:10.969Z,45.70
2018-08-18T11:14:44.368Z,45.90
2018-08-18T11:17:15.461Z,45.30
2018-08-18T11:19:46.597Z,45.50
2018-08-18T11:23:21.023Z,45.00
2018-08-18T11:25:53.384Z,44.80
2018-08-18T11:28:24.356Z,44.70
2018-08-18T11:30:55.736Z,45.10
2018-08-18T11:33:44.640Z,45.20
2018-08-18T11:36:15.505Z,45.30
2018-08-18T11:38:46.376Z,44.80
2018-08-18T11:41:17.221Z,44.70
2018-08-18T11:43:50.061Z,44.80
2018-08-18T11:46:20.961Z,44.60
2018-08-18T11:48:51.938Z,44.40
2018-08-18T11:51:27.193Z,43.90
2018-08-18T11:54:01.658Z,44.40
2018-08-18T11:56:38.558Z,44.20
2018-08-18T11:59:13.683Z,44.10
2018-08-18T12:01:48.599Z,44.40
2018-08-18T12:04:22.512Z,44.30
2018-08-18T12:06:59.504Z,44.10
2018-08-18T12:09:30.552Z,44.30
2018-08-18T12:12:02.056Z,43.60
2018-08-18T12:14:33.042Z,43.90
2018-08-18T12:17:05.221Z,43.70
2018-08-18T12:19:36.356Z,43.20
2018-08-18T12:22:07.517Z,43.60
2018-08-18T12:24:40.157Z,43.70
2018-08-18T12:27:13.505Z,43.90
2018-08-18T12:29:44.594Z,43.30
2018-08-18T17:21:27.092Z,39.40
2018-08-18T17:23:57.533Z,40.30
2018-08-18T17:26:28.500Z,40.30
2018-08-18T17:28:59.037Z,39.20
2018-08-18T17:31:29.492Z,38.60
2018-08-18T17:33:59.945Z,39.40
2018-08-18T17:36:30.561Z,40.20
2018-08-18T17:39:01.037Z,40.40
2018-08-18T17:41:31.518Z,40.10
2018-08-18T17:44:02.237Z,39.60
2018-08-18T17:46:33.278Z,40.10
2018-08-18T17:49:04.042Z,40.90
2018-08-18T17:51:34.651Z,40.90
2018-08-18T17:54:05.088Z,40.50
2018-08-18T17:56:35.475Z,40.70
2018-08-18T17:59:06.137Z,40.70
2018-08-18T18:01:41.386Z,40.50
2018-08-18T18:04:12.084Z,40.30
2018-08-18T18:06:42.509Z,40.50
2018-08-18T18:09:12.957Z,40.30
2018-08-18T18:11:43.449Z,40.40
2018-08-18T18:14:13.894Z,40.20
2018-08-18T18:16:44.257Z,40.40
2018-08-18T18:19:14.712Z,40.70
2018-08-18T18:21:45.481Z,40.40
2018-08-18T18:24:18.059Z,40.40
2018-08-18T18:26:55.158Z,40.20
2018-08-18T18:29:28.265Z,40.40
2018-08-18T18:31:58.911Z,41.00
2018-08-18T18:34:29.309Z,41.10
2018-08-18T18:36:59.950Z,40.70
2018-08-18T18:39:34.846Z,41.20
2018-08-18T18:42:08.432Z,41.30
2018-08-18T18:44:38.905Z,41.70
2018-08-18T18:47:09.258Z,41.40
2018-08-18T18:49:40.168Z,41.80
2018-08-18T18:52:10.531Z,42.20
2018-08-18T18:54:40.920Z,42.30
2018-08-18T18:57:11.321Z,42.50
2018-08-18T18:59:47.758Z,42.50
2018-08-18T19:02:18.149Z,42.80
2018-08-18T19:04:48.565Z,42.90
2018-08-18T19:07:18.952Z,43.20
2018-08-18T19:09:53.915Z,43.20
2018-08-18T19:12:24.588Z,43.50
2018-08-18T19:14:55.130Z,43.60
2018-08-18T19:17:25.540Z,44.40
2018-08-18T19:20:29.237Z,43.90
2018-08-18T19:23:08.709Z,44.00
2018-08-18T19:25:40.244Z,44.20
2018-08-18T19:28:12.594Z,44.00
2018-08-18T19:30:43.054Z,44.30
2018-08-18T19:33:20.286Z,44.20
2018-08-18T19:35:52.116Z,44.40
2018-08-18T19:38:23.714Z,44.30
2018-08-18T19:40:55.517Z,44.40
2018-08-18T19:43:26.901Z,44.60
2018-08-18T19:45:57.589Z,44.00
2018-08-18T19:48:28.473Z,44.10
2018-08-18T19:51:03.164Z,44.10
2018-08-18T19:53:34.980Z,44.30
2018-08-18T19:56:09.829Z,44.10
2018-08-18T19:58:40.239Z,45.00
2018-08-18T20:01:10.741Z,44.40
2018-08-18T20:03:41.110Z,44.40
2018-08-18T20:06:15.641Z,44.80
2018-08-18T20:08:46.106Z,44.90
2018-08-18T20:11:16.603Z,45.00
2018-08-18T20:13:47.186Z,45.30
2018-08-18T20:16:17.860Z,45.20
2018-08-18T20:18:48.333Z,45.90
2018-08-18T20:21:18.994Z,45.40
2018-08-18T20:23:49.662Z,45.70
2018-08-18T20:26:38.010Z,46.10
2018-08-18T20:29:08.490Z,46.20
2018-08-18T20:31:44.065Z,46.00
2018-08-18T20:34:14.511Z,46.40
2018-08-18T20:36:44.934Z,46.30
2018-08-18T20:39:15.587Z,46.40
2018-08-18T20:41:45.982Z,46.40
2018-08-18T20:44:16.358Z,46.20
2018-08-18T20:46:46.799Z,46.40
2018-08-18T20:49:18.388Z,46.50
2018-08-18T20:51:48.791Z,46.10
2018-08-18T20:54:19.269Z,46.10
2018-08-18T20:57:53.293Z,46.00
2018-08-18T21:00:23.720Z,46.30
2018-08-18T21:02:54.097Z,46.30
2018-08-18T21:05:24.531Z,46.60
2018-08-18T21:07:55.165Z,46.90
2018-08-18T21:10:25.521Z,47.20
2018-08-18T21:12:57.138Z,47.10
2018-08-18T21:15:27.801Z,47.30
2018-08-18T21:18:01.561Z,47.30
2018-08-18T21:20:31.981Z,47.40
2018-08-18T21:23:02.460Z,47.70
2018-08-18T21:25:44.028Z,47.90
2018-08-18T21:28:15.816Z,48.00
2018-08-18T21:30:46.228Z,48.20
2018-08-18T21:33:16.580Z,48.30
2018-08-18T21:35:46.969Z,48.30
2018-08-18T21:38:17.304Z,48.50
2018-08-18T21:40:47.738Z,48.50
2018-08-18T21:43:31.301Z,48.60
2018-08-18T21:46:01.668Z,48.50
2018-08-18T21:48:49.644Z,48.30
2018-08-18T21:51:25.937Z,48.40
2018-08-18T21:53:56.276Z,48.90
2018-08-18T21:56:29.671Z,48.90
2018-08-18T21:59:00.005Z,49.10
2018-08-18T22:01:30.373Z,49.10
2018-08-18T22:04:00.717Z,49.20
2018-08-18T22:06:31.060Z,49.10
2018-08-18T22:09:21.013Z,49.00
2018-08-18T22:11:51.560Z,49.10
2018-08-18T22:14:21.895Z,49.20
2018-08-18T22:16:58.782Z,49.20
2018-08-18T22:19:33.237Z,49.10
2018-08-18T22:22:03.557Z,49.20
2018-08-18T22:24:33.877Z,49.40
2018-08-18T22:27:04.231Z,49.10
2018-08-18T22:29:34.525Z,49.20
2018-08-18T22:32:09.981Z,49.30
2018-08-18T22:34:40.273Z,49.30
2018-08-18T22:37:14.966Z,49.70
2018-08-18T22:39:45.290Z,50.00
2018-08-18T22:42:15.637Z,50.00
2018-08-18T22:44:45.937Z,50.00
2018-08-18T22:54:28.662Z,50.30
2018-08-18T22:57:01.013Z,50.00
2018-08-18T22:59:32.010Z,50.30
2018-08-18T23:02:02.752Z,50.60
2018-08-18T23:04:35.950Z,50.60
2018-08-18T23:07:07.571Z,50.70
2018-08-18T23:09:42.573Z,50.80
2018-08-18T23:12:13.928Z,51.00
2018-08-18T23:14:44.316Z,50.80
2018-08-18T23:17:14.620Z,50.80
2018-08-18T23:19:44.955Z,50.80
2018-08-18T23:22:33.026Z,50.90
2018-08-18T23:25:03.692Z,51.30
2018-08-18T23:27:34.184Z,51.40
2018-08-18T23:30:06.205Z,51.20
2018-08-18T23:32:36.656Z,51.50
2018-08-18T23:35:07.113Z,52.20
2018-08-18T23:37:37.816Z,51.40
2018-08-18T23:40:08.535Z,51.50
2018-08-18T23:42:39.031Z,51.40
2018-08-18T23:45:09.469Z,51.40
2018-08-18T23:47:40.182Z,51.60
2018-08-18T23:50:10.647Z,51.70
2018-08-18T23:52:55.247Z,51.70
2018-08-18T23:55:26.611Z,51.40
2018-08-18T23:57:57.131Z,51.40
